Time;durP1;ratioP1;P1;durP2;ratioP2;P2;SDS_P1;SDS_P2;PMS_P1;PMS_P2;Temp;Humidity;BMP_temperature;BMP_pressure;BME280_temperature;BME280_humidity;BME280_pressure;Samples;Min_cycle;Max_cycle;Signal;HPM_P1;HPM_P2
2022/09/15 00:00:53;;;;;;;3.50;0.80;;;16.40;99.90;;;;;;4807285;29;20149;-84
2022/09/15 00:03:20;;;;;;;5.25;0.60;;;16.40;99.90;;;;;;4790969;29;20142;-83
2022/09/15 00:05:46;;;;;;;4.00;0.60;;;16.40;99.90;;;;;;4790880;29;20050;-85
2022/09/15 00:08:12;;;;;;;6.95;0.90;;;16.40;99.90;;;;;;4807397;29;20099;-84
2022/09/15 00:10:47;;;;;;;6.50;0.90;;;16.50;99.90;;;;;;4807678;29;20054;-84
2022/09/15 00:13:13;;;;;;;10.18;0.90;;;16.40;99.90;;;;;;4807376;29;20046;-83
2022/09/15 00:15:38;;;;;;;7.50;1.02;;;16.50;99.90;;;;;;4791024;29;20050;-84
2022/09/15 00:18:05;;;;;;;6.15;0.80;;;16.50;99.90;;;;;;4791230;29;20053;-83
2022/09/15 00:20:30;;;;;;;5.45;0.75;;;16.50;99.90;;;;;;4791098;29;20491;-83
2022/09/15 00:22:56;;;;;;;5.60;0.75;;;16.50;99.90;;;;;;4807475;29;20089;-85
2022/09/15 00:25:22;;;;;;;5.32;0.80;;;16.50;99.90;;;;;;4790926;29;20055;-84
2022/09/15 00:27:48;;;;;;;7.97;0.57;;;16.40;99.90;;;;;;4790893;29;20103;-83
2022/09/15 00:30:14;;;;;;;2.70;0.47;;;16.40;99.90;;;;;;4807134;29;20501;-85
2022/09/15 00:32:39;;;;;;;4.63;0.70;;;16.50;99.90;;;;;;4807276;29;20043;-84
2022/09/15 00:35:05;;;;;;;5.38;0.70;;;16.40;99.90;;;;;;4790910;29;20406;-84
2022/09/15 00:37:32;;;;;;;6.60;0.90;;;16.40;99.90;;;;;;4807050;29;20047;-83
2022/09/15 00:39:57;;;;;;;6.20;0.70;;;16.40;99.90;;;;;;4807153;29;20046;-84
2022/09/15 00:42:23;;;;;;;5.70;0.75;;;16.40;99.90;;;;;;4791396;29;20058;-84
2022/09/15 00:44:53;;;;;;;7.75;0.90;;;16.40;99.90;;;;;;4807695;29;20054;-84
2022/09/15 00:47:27;;;;;;;3.30;0.68;;;16.50;99.90;;;;;;4807231;29;20039;-82
2022/09/15 00:50:00;;;;;;;6.13;0.70;;;16.50;99.90;;;;;;4790535;29;20043;-84
2022/09/15 00:52:33;;;;;;;4.65;1.25;;;16.50;99.90;;;;;;4793517;29;20372;-84
2022/09/15 00:55:04;;;;;;;6.28;0.70;;;16.40;99.90;;;;;;4810227;29;20050;-84
2022/09/15 00:57:45;;;;;;;5.78;0.93;;;16.40;99.90;;;;;;4794254;29;20082;-84
2022/09/15 01:00:14;;;;;;;10.55;0.90;;;16.40;99.90;;;;;;4794002;29;20377;-84
2022/09/15 01:02:43;;;;;;;10.88;1.00;;;16.30;99.90;;;;;;4794239;29;20130;-83
2022/09/15 01:05:12;;;;;;;5.05;0.60;;;16.30;99.90;;;;;;4810085;29;20046;-84
2022/09/15 01:07:46;;;;;;;3.63;0.68;;;16.30;99.90;;;;;;4793735;29;20141;-83
2022/09/15 01:10:18;;;;;;;6.07;1.02;;;16.30;99.90;;;;;;4810200;29;20534;-84
2022/09/15 01:12:44;;;;;;;3.08;0.70;;;16.30;99.90;;;;;;4810350;29;20038;-83
2022/09/15 01:15:10;;;;;;;6.78;1.10;;;16.30;99.90;;;;;;4793836;29;20042;-84
2022/09/15 01:17:51;;;;;;;7.35;1.23;;;16.30;99.90;;;;;;4810101;29;20058;-84
2022/09/15 01:20:35;;;;;;;10.90;1.20;;;16.40;99.90;;;;;;4810103;29;20050;-83
2022/09/15 01:23:20;;;;;;;6.72;0.75;;;16.40;99.90;;;;;;4809646;29;20051;-84
2022/09/15 01:25:49;;;;;;;6.82;1.80;;;16.40;99.90;;;;;;4793606;29;20086;-85
2022/09/15 01:28:33;;;;;;;5.93;1.00;;;16.40;99.90;;;;;;4793954;29;20047;-82
2022/09/15 01:31:14;;;;;;;4.60;0.75;;;16.30;99.90;;;;;;4809793;29;20054;-86
2022/09/15 01:33:48;;;;;;;4.35;0.68;;;16.20;99.90;;;;;;4810419;29;20046;-84
2022/09/15 01:36:18;;;;;;;4.03;1.08;;;16.10;99.90;;;;;;4793810;29;20119;-84
2022/09/15 01:39:02;;;;;;;8.85;1.25;;;15.90;99.90;;;;;;4809999;29;20506;-85
2022/09/15 01:41:45;;;;;;;6.60;0.85;;;15.70;99.90;;;;;;4810523;29;20098;-84
2022/09/15 01:44:18;;;;;;;6.65;1.52;;;15.70;99.90;;;;;;4810850;29;20513;-84
2022/09/15 01:46:47;;;;;;;6.57;1.27;;;15.50;99.90;;;;;;4810362;29;20138;-84
2022/09/15 01:49:23;;;;;;;5.57;1.33;;;15.50;99.90;;;;;;4792736;29;20058;-83
2022/09/15 01:51:52;;;;;;;10.52;1.30;;;15.40;99.90;;;;;;4809036;29;20586;-83
2022/09/15 01:54:25;;;;;;;14.93;2.75;;;15.50;99.90;;;;;;4793174;29;20422;-81
2022/09/15 01:56:50;;;;;;;8.13;0.95;;;15.40;99.90;;;;;;4809462;29;20045;-82
2022/09/15 01:59:16;;;;;;;7.03;0.98;;;15.40;99.90;;;;;;4808939;29;20051;-82
2022/09/15 02:01:50;;;;;;;4.68;0.80;;;15.40;99.90;;;;;;4809145;29;20051;-81
2022/09/15 02:04:35;;;;;;;4.97;0.95;;;15.30;99.90;;;;;;4809046;29;20105;-82
2022/09/15 02:07:10;;;;;;;7.72;1.20;;;15.30;99.90;;;;;;4808984;29;20089;-82
2022/09/15 02:09:42;;;;;;;5.75;0.73;;;15.20;99.90;;;;;;4809041;29;20046;-83
2022/09/15 02:12:34;;;;;;;6.53;1.95;;;15.20;99.90;;;;;;4809043;29;20051;-83
2022/09/15 02:15:06;;;;;;;2.13;0.45;;;15.20;99.90;;;;;;4792462;29;20057;-82
2022/09/15 02:17:37;;;;;;;5.80;1.02;;;15.20;99.90;;;;;;4792688;29;20077;-83
2022/09/15 02:20:19;;;;;;;6.57;0.45;;;15.30;99.90;;;;;;4808942;29;20051;-83
2022/09/15 02:22:54;;;;;;;3.42;0.70;;;15.30;99.90;;;;;;4808494;29;20403;-82
2022/09/15 02:25:32;;;;;;;4.43;0.60;;;15.30;99.90;;;;;;4808878;29;20433;-82
2022/09/15 02:28:03;;;;;;;3.13;0.43;;;15.30;99.90;;;;;;4793215;29;20065;-81
2022/09/15 02:30:31;;;;;;;4.25;1.00;;;15.30;99.90;;;;;;4791725;29;20107;-83
2022/09/15 02:33:08;;;;;;;6.18;1.35;;;15.30;99.90;;;;;;4791593;29;20050;-82
2022/09/15 02:35:35;;;;;;;6.15;1.10;;;15.30;99.90;;;;;;4807807;29;20051;-83
2022/09/15 02:38:04;;;;;;;4.55;0.55;;;15.40;99.90;;;;;;4791570;29;20089;-82
2022/09/15 02:40:31;;;;;;;6.90;0.93;;;15.40;99.90;;;;;;4807776;29;20046;-82
2022/09/15 02:43:02;;;;;;;4.38;0.60;;;15.50;99.90;;;;;;4791618;29;20055;-82
2022/09/15 02:45:29;;;;;;;5.75;1.00;;;15.40;99.90;;;;;;4791598;29;20061;-82
2022/09/15 02:47:59;;;;;;;6.10;1.15;;;15.40;99.90;;;;;;4791302;29;20057;-83
2022/09/15 02:50:25;;;;;;;7.30;1.20;;;15.50;99.90;;;;;;4807390;29;20051;-81
2022/09/15 02:52:54;;;;;;;11.18;1.13;;;15.50;99.90;;;;;;4807243;29;20491;-83
2022/09/15 02:55:21;;;;;;;9.10;1.38;;;15.50;99.90;;;;;;4807432;29;20051;-82
2022/09/15 02:57:46;;;;;;;10.65;1.27;;;15.60;99.90;;;;;;4807419;29;20042;-83
2022/09/15 03:00:13;;;;;;;9.68;1.60;;;15.60;99.90;;;;;;4807376;29;20396;-83
2022/09/15 03:02:50;;;;;;;7.38;1.73;;;15.70;99.90;;;;;;4791101;29;20498;-82
2022/09/15 03:05:19;;;;;;;7.78;1.40;;;15.70;99.90;;;;;;4807767;29;20491;-83
2022/09/15 03:07:44;;;;;;;10.00;1.13;;;15.70;99.90;;;;;;4807106;29;20054;-83
2022/09/15 03:10:11;;;;;;;8.32;1.23;;;15.70;99.90;;;;;;4790828;29;20050;-85
2022/09/15 03:12:42;;;;;;;6.72;1.10;;;15.70;99.90;;;;;;4807188;29;20162;-82
2022/09/15 03:15:10;;;;;;;5.50;1.00;;;15.70;99.90;;;;;;4790452;29;20057;-83
2022/09/15 03:17:37;;;;;;;8.20;1.33;;;15.70;99.90;;;;;;4806848;29;20050;-84
2022/09/15 03:20:04;;;;;;;10.60;1.20;;;15.80;99.90;;;;;;4807110;29;20188;-81
2022/09/15 03:22:31;;;;;;;6.72;1.05;;;15.70;99.90;;;;;;4790536;29;20517;-84
2022/09/15 03:24:56;;;;;;;9.70;1.00;;;15.70;99.90;;;;;;4806923;29;20057;-84
2022/09/15 03:27:22;;;;;;;11.57;1.25;;;15.80;99.90;;;;;;4807006;29;20039;-85
2022/09/15 03:29:47;;;;;;;13.00;1.05;;;15.80;99.90;;;;;;4806828;29;20102;-85
2022/09/15 03:32:14;;;;;;;7.00;1.08;;;15.70;99.90;;;;;;4790611;29;20487;-84
2022/09/15 03:34:40;;;;;;;7.32;1.10;;;15.70;99.90;;;;;;4807778;29;20051;-84
2022/09/15 03:37:06;;;;;;;4.22;0.70;;;15.70;99.90;;;;;;4791874;29;20065;-84
2022/09/15 03:39:31;;;;;;;7.90;1.35;;;15.80;99.90;;;;;;4791662;29;20479;-83
2022/09/15 03:41:57;;;;;;;8.10;1.00;;;15.70;99.90;;;;;;4807605;29;20441;-84
2022/09/15 03:44:23;;;;;;;7.35;0.75;;;15.70;99.90;;;;;;4807576;29;20038;-84
2022/09/15 03:46:48;;;;;;;5.22;0.98;;;15.70;99.90;;;;;;4808470;29;20448;-83
2022/09/15 03:49:14;;;;;;;5.80;1.05;;;15.70;99.90;;;;;;4791474;29;20510;-83
2022/09/15 03:51:40;;;;;;;7.30;0.77;;;15.70;99.90;;;;;;4807998;29;20046;-84
2022/09/15 03:54:07;;;;;;;6.32;0.70;;;15.70;99.90;;;;;;4808322;29;20069;-84
2022/09/15 03:56:33;;;;;;;8.00;0.70;;;15.70;99.90;;;;;;4807857;29;20129;-84
2022/09/15 03:59:00;;;;;;;4.80;0.65;;;15.70;99.90;;;;;;4807928;29;20103;-83
2022/09/15 04:01:27;;;;;;;7.47;0.80;;;15.70;99.90;;;;;;4791589;29;20049;-83
2022/09/15 04:03:53;;;;;;;3.67;0.50;;;15.70;99.90;;;;;;4791365;29;20440;-85
2022/09/15 04:06:20;;;;;;;6.07;0.90;;;15.70;99.90;;;;;;4807688;29;20497;-85
2022/09/15 04:08:47;;;;;;;5.75;0.60;;;15.70;99.90;;;;;;4807472;29;20122;-83
2022/09/15 04:11:14;;;;;;;6.18;0.77;;;15.70;99.90;;;;;;4791641;29;20508;-83
2022/09/15 04:13:40;;;;;;;3.58;0.70;;;15.70;99.90;;;;;;4791129;29;20078;-82
2022/09/15 04:16:12;;;;;;;4.07;0.45;;;15.70;99.90;;;;;;4807400;29;20046;-84
2022/09/15 04:18:39;;;;;;;6.50;0.80;;;15.70;99.90;;;;;;4807574;29;20065;-83
2022/09/15 04:21:13;;;;;;;3.33;0.60;;;15.80;99.90;;;;;;4807536;29;20368;-84
2022/09/15 04:23:40;;;;;;;7.85;1.17;;;15.70;99.90;;;;;;4807694;29;20046;-85
2022/09/15 04:26:08;;;;;;;4.65;1.27;;;15.70;99.90;;;;;;4807951;29;20127;-85
2022/09/15 04:28:36;;;;;;;4.45;0.88;;;15.80;99.90;;;;;;4794442;29;20051;-83
2022/09/15 04:31:06;;;;;;;5.80;0.77;;;15.70;99.90;;;;;;4794932;29;20055;-84
2022/09/15 04:33:33;;;;;;;5.05;0.95;;;15.70;99.90;;;;;;4811053;29;20488;-84
2022/09/15 04:36:04;;;;;;;8.10;1.00;;;15.70;99.90;;;;;;4811202;29;20054;-84
2022/09/15 04:38:30;;;;;;;6.78;0.82;;;15.70;99.90;;;;;;4810579;29;20047;-86
2022/09/15 04:40:57;;;;;;;7.82;1.00;;;15.70;99.90;;;;;;4811329;29;20134;-87
2022/09/15 04:43:24;;;;;;;6.28;0.80;;;15.70;99.90;;;;;;4794500;29;20070;-85
2022/09/15 04:45:50;;;;;;;5.45;1.02;;;15.70;99.90;;;;;;4810295;29;20442;-85
2022/09/15 04:48:16;;;;;;;6.10;0.80;;;15.60;99.90;;;;;;4794427;29;20051;-84
2022/09/15 04:50:42;;;;;;;6.38;0.70;;;15.60;99.90;;;;;;4794297;29;20487;-84
2022/09/15 04:53:08;;;;;;;3.95;0.80;;;15.60;99.90;;;;;;4810411;29;20054;-85
2022/09/15 04:55:34;;;;;;;5.30;0.77;;;15.60;99.90;;;;;;4810717;29;20049;-84
2022/09/15 04:58:01;;;;;;;7.75;1.27;;;15.60;99.90;;;;;;4794240;29;20062;-84
2022/09/15 05:00:32;;;;;;;6.03;0.77;;;15.60;99.90;;;;;;4795101;29;20054;-84
2022/09/15 05:02:58;;;;;;;5.57;1.15;;;15.70;99.90;;;;;;4795550;29;20051;-83
2022/09/15 05:05:24;;;;;;;4.28;0.90;;;15.70;99.90;;;;;;4810730;29;20085;-83
2022/09/15 05:07:51;;;;;;;6.20;1.13;;;15.80;99.90;;;;;;4793110;29;20082;-84
2022/09/15 05:10:18;;;;;;;2.90;0.65;;;15.80;99.90;;;;;;4809713;29;20047;-83
2022/09/15 05:12:44;;;;;;;7.28;0.98;;;15.80;99.90;;;;;;4794339;29;20054;-83
2022/09/15 05:15:10;;;;;;;4.65;0.75;;;15.80;99.90;;;;;;4793276;29;20471;-84
2022/09/15 05:17:36;;;;;;;7.60;1.10;;;15.80;99.90;;;;;;4793118;29;20135;-84
2022/09/15 05:20:03;;;;;;;9.30;1.05;;;15.80;99.90;;;;;;4792141;29;20503;-83
2022/09/15 05:22:30;;;;;;;5.25;1.10;;;15.70;99.90;;;;;;4808579;29;20063;-82
2022/09/15 05:24:56;;;;;;;3.58;0.82;;;15.70;99.90;;;;;;4809060;29;20046;-83
2022/09/15 05:27:22;;;;;;;3.45;0.55;;;15.80;99.90;;;;;;4808958;29;20058;-83
2022/09/15 05:29:48;;;;;;;5.03;0.60;;;15.70;99.90;;;;;;4808878;29;20047;-88
2022/09/15 05:32:13;;;;;;;3.30;0.70;;;15.80;99.90;;;;;;4792571;29;20043;-82
2022/09/15 05:34:39;;;;;;;4.65;0.60;;;15.70;99.90;;;;;;4804046;29;20150;-82
2022/09/15 05:37:05;;;;;;;4.63;0.80;;;15.80;99.90;;;;;;4797781;29;20061;-81
2022/09/15 05:39:30;;;;;;;6.20;0.88;;;15.90;99.90;;;;;;4790579;30;20061;-81
2022/09/15 05:41:56;;;;;;;7.72;1.25;;;15.90;99.90;;;;;;4790423;30;20082;-82
2022/09/15 05:44:22;;;;;;;4.65;0.80;;;15.90;99.90;;;;;;4790552;30;20077;-82
2022/09/15 05:46:48;;;;;;;2.38;0.73;;;15.90;99.90;;;;;;4790221;30;20473;-83
2022/09/15 05:49:13;;;;;;;4.00;0.80;;;15.90;99.90;;;;;;4790362;30;20070;-82
2022/09/15 05:51:39;;;;;;;5.30;0.82;;;15.80;99.90;;;;;;4789090;30;20062;-81
2022/09/15 05:54:05;;;;;;;3.97;0.70;;;15.90;99.90;;;;;;4790089;30;20565;-83
2022/09/15 05:56:31;;;;;;;6.82;1.40;;;15.80;99.90;;;;;;4789980;30;20051;-82
2022/09/15 05:58:57;;;;;;;5.63;0.70;;;15.90;99.90;;;;;;4790132;29;20051;-82
2022/09/15 06:01:28;;;;;;;4.65;0.63;;;15.90;99.90;;;;;;4789925;29;20047;-83
2022/09/15 06:03:55;;;;;;;1.77;0.40;;;15.90;99.90;;;;;;4773895;30;20062;-84
2022/09/15 06:06:21;;;;;;;4.32;0.70;;;15.90;99.90;;;;;;4774248;30;20054;-84
2022/09/15 06:08:49;;;;;;;4.65;0.70;;;15.90;99.90;;;;;;4790298;30;20074;-83
2022/09/15 06:11:19;;;;;;;6.25;0.75;;;15.90;99.90;;;;;;4773806;30;20055;-83
2022/09/15 06:13:46;;;;;;;4.57;0.95;;;15.90;99.90;;;;;;4789992;29;20051;-83
2022/09/15 06:16:18;;;;;;;3.88;0.73;;;16.00;99.90;;;;;;4789863;30;20484;-84
2022/09/15 06:18:44;;;;;;;8.63;1.57;;;16.00;99.90;;;;;;4773859;30;20053;-84
2022/09/15 06:21:22;;;;;;;6.07;0.90;;;16.00;99.90;;;;;;4789624;30;20381;-85
2022/09/15 06:23:55;;;;;;;5.60;1.00;;;16.10;99.90;;;;;;4789966;30;20051;-84
2022/09/15 06:26:22;;;;;;;7.70;0.75;;;16.00;99.90;;;;;;4773853;30;20488;-83
2022/09/15 06:28:56;;;;;;;5.50;1.25;;;16.00;99.90;;;;;;4789735;30;20054;-84
2022/09/15 06:31:23;;;;;;;5.82;0.90;;;16.00;99.90;;;;;;4789565;30;20051;-85
2022/09/15 06:33:50;;;;;;;3.58;0.88;;;16.00;99.90;;;;;;4789565;30;20047;-83
2022/09/15 06:36:18;;;;;;;4.75;0.80;;;16.20;99.90;;;;;;4773715;30;20128;-85
2022/09/15 06:38:44;;;;;;;13.43;1.30;;;16.20;99.90;;;;;;4789747;30;20047;-84
2022/09/15 06:41:10;;;;;;;8.45;1.08;;;16.30;99.90;;;;;;4789663;30;20090;-85
2022/09/15 06:43:36;;;;;;;6.72;0.90;;;16.40;99.90;;;;;;4773263;30;20055;-83
2022/09/15 06:46:11;;;;;;;5.35;0.65;;;16.50;99.90;;;;;;4789385;29;20138;-83
2022/09/15 06:48:37;;;;;;;9.88;1.45;;;16.50;99.90;;;;;;4772760;30;20078;-84
2022/09/15 06:51:04;;;;;;;7.55;0.95;;;16.50;99.90;;;;;;4773105;30;20111;-82
2022/09/15 06:53:31;;;;;;;7.50;1.02;;;16.50;99.90;;;;;;4789247;30;20131;-86
2022/09/15 06:56:02;;;;;;;7.57;1.08;;;16.40;99.90;;;;;;4789359;30;20091;-84
2022/09/15 06:58:28;;;;;;;8.13;1.60;;;16.40;99.90;;;;;;4789312;29;20054;-86
2022/09/15 07:00:58;;;;;;;9.82;2.00;;;16.40;99.90;;;;;;4789205;30;20055;-85
2022/09/15 07:03:24;;;;;;;8.75;1.27;;;16.40;99.90;;;;;;4789168;30;20047;-83
2022/09/15 07:05:49;;;;;;;6.05;1.02;;;16.40;99.90;;;;;;4772931;30;20054;-82
2022/09/15 07:08:15;;;;;;;6.43;1.63;;;16.30;99.90;;;;;;4789172;29;20054;-83
2022/09/15 07:10:43;;;;;;;5.13;0.95;;;16.40;99.90;;;;;;4788961;30;20570;-83
2022/09/15 07:13:09;;;;;;;8.63;1.02;;;16.30;99.90;;;;;;4789146;30;20128;-82
2022/09/15 07:15:34;;;;;;;8.65;1.38;;;16.30;99.90;;;;;;4789165;30;20089;-82
2022/09/15 07:18:00;;;;;;;5.50;1.25;;;16.20;99.90;;;;;;4789058;30;20047;-83
2022/09/15 07:20:26;;;;;;;6.65;0.80;;;16.10;99.90;;;;;;4772527;30;20055;-83
2022/09/15 07:22:52;;;;;;;8.07;0.93;;;16.10;99.90;;;;;;4788823;29;20058;-84
2022/09/15 07:25:17;;;;;;;8.60;1.00;;;16.10;99.90;;;;;;4788963;29;20076;-83
2022/09/15 07:27:43;;;;;;;5.88;1.00;;;16.00;99.90;;;;;;4772725;30;20074;-83
2022/09/15 07:30:10;;;;;;;8.82;1.30;;;16.10;99.90;;;;;;4788595;30;20059;-83
2022/09/15 07:32:36;;;;;;;6.90;1.20;;;16.10;99.90;;;;;;4789183;30;20130;-83
2022/09/15 07:35:02;;;;;;;9.27;1.30;;;16.10;99.90;;;;;;4788889;30;20185;-83
2022/09/15 07:37:27;;;;;;;3.42;0.93;;;16.20;99.90;;;;;;4788776;30;20051;-83
2022/09/15 07:39:53;;;;;;;9.13;1.10;;;16.30;99.90;;;;;;4788607;30;20062;-84
2022/09/15 07:42:19;;;;;;;5.00;1.00;;;16.30;99.90;;;;;;4788787;30;20054;-82
2022/09/15 07:44:44;;;;;;;8.80;1.08;;;16.40;99.90;;;;;;4772613;30;20047;-84
2022/09/15 07:47:10;;;;;;;8.40;0.70;;;16.30;99.90;;;;;;4788456;30;20453;-83
2022/09/15 07:49:35;;;;;;;4.03;0.70;;;16.20;99.90;;;;;;4788340;30;20487;-83
2022/09/15 07:52:01;;;;;;;11.13;0.82;;;16.20;99.90;;;;;;4788452;30;20078;-84
2022/09/15 07:54:27;;;;;;;3.83;0.70;;;16.20;99.90;;;;;;4788317;29;20059;-83
2022/09/15 07:56:53;;;;;;;7.18;1.30;;;16.20;99.90;;;;;;4772323;30;20048;-83
2022/09/15 07:59:18;;;;;;;6.28;1.17;;;16.20;99.90;;;;;;4788704;30;20150;-84
2022/09/15 08:01:44;;;;;;;9.13;1.02;;;16.30;99.90;;;;;;4772081;30;20116;-84
2022/09/15 08:04:09;;;;;;;7.90;0.90;;;16.30;99.90;;;;;;4788463;29;20047;-84
2022/09/15 08:06:35;;;;;;;5.63;0.90;;;16.50;99.90;;;;;;4772536;30;20104;-83
2022/09/15 08:09:01;;;;;;;5.13;0.95;;;16.60;99.90;;;;;;4772440;30;20112;-83
2022/09/15 08:11:28;;;;;;;6.75;1.02;;;16.90;99.90;;;;;;4772165;30;20063;-84
2022/09/15 08:13:53;;;;;;;6.68;0.90;;;17.10;99.90;;;;;;4772333;30;20058;-84
2022/09/15 08:16:21;;;;;;;5.32;0.70;;;17.30;99.90;;;;;;4772152;30;20055;-84
2022/09/15 08:18:50;;;;;;;7.32;1.17;;;17.40;99.90;;;;;;4772359;30;20090;-82
2022/09/15 08:21:21;;;;;;;6.70;0.80;;;17.50;99.90;;;;;;4788114;30;20146;-84
2022/09/15 08:23:55;;;;;;;11.63;1.42;;;17.50;99.90;;;;;;4771988;30;20420;-83
2022/09/15 08:26:22;;;;;;;11.70;1.98;;;17.30;99.90;;;;;;4788098;30;20503;-82
2022/09/15 08:28:48;;;;;;;13.55;2.20;;;17.00;99.90;;;;;;4788122;30;20116;-82
2022/09/15 08:31:15;;;;;;;11.43;1.33;;;16.50;99.90;;;;;;4788184;30;20047;-82
2022/09/15 08:33:41;;;;;;;4.93;0.95;;;16.30;99.90;;;;;;4788289;30;20081;-82
2022/09/15 08:36:11;;;;;;;9.68;1.20;;;16.00;99.90;;;;;;4772144;30;20097;-81
2022/09/15 08:38:40;;;;;;;6.35;1.10;;;15.90;99.90;;;;;;4788237;29;20397;-81
2022/09/15 08:41:28;;;;;;;6.45;1.30;;;15.80;99.90;;;;;;4788012;30;20074;-81
2022/09/15 08:44:29;;;;;;;7.07;1.33;;;15.70;99.90;;;;;;4788163;30;20067;-81
2022/09/15 08:47:26;;;;;;;7.75;1.50;;;15.70;99.90;;;;;;4788196;30;20059;-81
2022/09/15 08:49:58;;;;;;;6.60;1.75;;;15.80;99.90;;;;;;4787601;30;20154;-81
2022/09/15 08:52:49;;;;;;;9.90;2.38;;;15.90;99.90;;;;;;4771785;30;20063;-81
2022/09/15 08:55:30;;;;;;;10.63;1.23;;;15.80;99.90;;;;;;4772014;30;20167;-82
2022/09/15 09:00:32;;;;;;;5.70;1.13;;;15.90;99.90;;;;;;5003798;24;20070;-81
2022/09/15 09:03:32;;;;;;;5.15;1.30;;;15.90;99.90;;;;;;4789669;29;20103;-82
2022/09/15 09:06:20;;;;;;;6.55;1.63;;;16.00;99.90;;;;;;4789868;29;20159;-81
2022/09/15 09:09:11;;;;;;;5.70;0.90;;;16.10;99.90;;;;;;4789396;29;20055;-81
2022/09/15 09:11:54;;;;;;;5.95;1.30;;;16.20;99.90;;;;;;4788978;29;20074;-82
2022/09/15 09:15:04;;;;;;;8.10;1.10;;;16.20;99.90;;;;;;4793059;29;20053;-81
2022/09/15 09:17:57;;;;;;;4.22;1.05;;;16.30;99.90;;;;;;4808872;29;20046;-81
2022/09/15 09:28:52;;;;;;;7.00;0.80;;;16.40;99.90;;;;;;5701513;24;21702;-82
2022/09/15 09:31:21;;;;;;;4.15;1.23;;;16.50;99.90;;;;;;4792358;29;20156;-82
2022/09/15 09:33:56;;;;;;;8.05;1.40;;;16.60;99.90;;;;;;4792412;29;20081;-81
2022/09/15 09:36:24;;;;;;;7.63;1.20;;;16.50;99.90;;;;;;4792426;29;20058;-82
2022/09/15 09:46:35;;;;;;;7.82;1.13;;;15.90;99.90;;;;;;5868386;24;20017;-81
2022/09/15 09:49:15;;;;;;;8.02;1.63;;;15.70;99.90;;;;;;4791333;29;20063;-81
2022/09/15 09:51:47;;;;;;;7.47;1.33;;;15.70;99.90;;;;;;4792122;29;20051;-82
2022/09/15 09:54:19;;;;;;;6.80;0.90;;;15.80;99.90;;;;;;4808594;29;20047;-81
2022/09/15 09:56:48;;;;;;;7.63;1.20;;;15.90;99.90;;;;;;4792354;29;20147;-82
2022/09/15 09:59:34;;;;;;;8.95;1.52;;;15.90;99.90;;;;;;4808295;29;20046;-81
2022/09/15 10:02:24;;;;;;;7.47;1.02;;;15.70;99.90;;;;;;4808216;29;20491;-81
2022/09/15 10:05:05;;;;;;;8.05;1.20;;;15.50;99.90;;;;;;4791994;29;20055;-82
2022/09/15 10:07:33;;;;;;;7.70;1.15;;;15.40;99.90;;;;;;4792220;29;20414;-81
2022/09/15 10:10:00;;;;;;;3.85;0.88;;;15.30;99.90;;;;;;4791824;29;20058;-81
2022/09/15 10:12:38;;;;;;;8.88;1.17;;;15.10;99.90;;;;;;4808256;29;20051;-81
2022/09/15 10:15:07;;;;;;;5.05;0.73;;;15.00;99.90;;;;;;4808519;29;20121;-81
2022/09/15 10:17:42;;;;;;;6.75;1.00;;;14.90;99.90;;;;;;4791969;29;20062;-81
2022/09/15 10:20:23;;;;;;;4.32;0.40;;;15.00;99.90;;;;;;4807896;29;20054;-82
2022/09/15 10:22:49;;;;;;;5.85;0.88;;;15.00;99.90;;;;;;4807855;29;20141;-81
2022/09/15 10:25:18;;;;;;;6.05;1.27;;;15.10;99.90;;;;;;4790763;29;20126;-82
2022/09/15 10:27:44;;;;;;;6.43;1.45;;;15.10;99.90;;;;;;4807852;29;20525;-81
2022/09/15 10:30:18;;;;;;;5.50;1.02;;;15.10;99.90;;;;;;4807857;29;20038;-82
2022/09/15 10:32:44;;;;;;;7.38;0.90;;;15.10;99.90;;;;;;4807908;29;20134;-82
2022/09/15 10:35:17;;;;;;;6.28;0.90;;;15.10;99.90;;;;;;4791417;29;20133;-82
2022/09/15 10:38:11;;;;;;;6.78;1.00;;;15.20;99.90;;;;;;4807922;29;20055;-82
2022/09/15 10:40:52;;;;;;;6.75;1.27;;;15.30;99.90;;;;;;4801855;29;20523;-82
2022/09/15 10:43:48;;;;;;;4.25;1.58;;;15.40;99.90;;;;;;4791522;29;20078;-82
2022/09/15 10:46:24;;;;;;;4.82;1.25;;;15.60;99.90;;;;;;4791462;29;20096;-82
2022/09/15 10:49:24;;;;;;;3.72;0.70;;;15.90;99.90;;;;;;4791035;29;20050;-81
2022/09/15 10:51:59;;;;;;;5.43;0.77;;;16.10;99.90;;;;;;4791409;29;20054;-82
2022/09/15 10:55:35;;;;;;;2.00;0.60;;;16.20;99.90;;;;;;4807214;29;20469;-82
2022/09/15 10:58:13;;;;;;;7.15;1.00;;;16.30;99.90;;;;;;4700127;30;20148;-82
2022/09/15 11:01:04;;;;;;;4.00;0.90;;;16.40;99.90;;;;;;4797964;29;20107;-83
2022/09/15 11:04:12;;;;;;;6.90;1.42;;;16.50;99.90;;;;;;4783762;29;20059;-81
2022/09/15 11:06:43;;;;;;;5.88;1.38;;;16.70;99.90;;;;;;4807047;29;20384;-83
2022/09/15 11:09:33;;;;;;;5.75;0.90;;;16.70;99.90;;;;;;4807381;29;20047;-82
2022/09/15 11:11:59;;;;;;;2.78;0.65;;;16.80;99.90;;;;;;4791101;29;20073;-81
2022/09/15 11:14:43;;;;;;;6.03;0.82;;;16.80;99.90;;;;;;4790694;29;20402;-84
2022/09/15 11:17:37;;;;;;;4.55;0.70;;;16.80;99.90;;;;;;4807240;29;20094;-81
2022/09/15 11:20:22;;;;;;;4.43;0.88;;;16.80;99.90;;;;;;4807112;29;20047;-83
2022/09/15 11:23:04;;;;;;;4.38;0.82;;;16.80;99.90;;;;;;4806970;29;20080;-82
2022/09/15 11:25:39;;;;;;;6.57;0.82;;;16.90;99.90;;;;;;4806818;29;20395;-83
2022/09/15 11:28:12;;;;;;;5.43;0.90;;;16.80;99.90;;;;;;4790754;29;20054;-83
2022/09/15 11:30:59;;;;;;;7.63;0.90;;;16.90;99.90;;;;;;4790437;29;20526;-84
2022/09/15 11:33:35;;;;;;;6.80;1.40;;;16.80;99.90;;;;;;4790730;29;20062;-84
2022/09/15 11:36:19;;;;;;;7.85;1.13;;;16.80;99.90;;;;;;4806473;29;20086;-84
2022/09/15 11:39:06;;;;;;;8.48;1.20;;;16.80;99.90;;;;;;4806664;29;20047;-85
2022/09/15 11:41:49;;;;;;;6.60;1.17;;;16.70;99.90;;;;;;4790500;29;20372;-84
2022/09/15 11:44:33;;;;;;;6.40;0.80;;;16.80;99.90;;;;;;4806798;29;20059;-84
2022/09/15 11:47:23;;;;;;;7.63;1.00;;;16.90;99.90;;;;;;4806493;29;20071;-84
2022/09/15 11:50:15;;;;;;;8.82;1.33;;;16.80;99.90;;;;;;4790392;29;20164;-83
2022/09/15 11:53:02;;;;;;;7.25;1.20;;;16.70;99.90;;;;;;4790268;29;20059;-84
2022/09/15 11:55:50;;;;;;;5.07;1.00;;;17.00;99.90;;;;;;4790421;29;20050;-84
2022/09/15 11:58:17;;;;;;;6.25;0.90;;;17.10;99.90;;;;;;4790171;29;20047;-85
2022/09/15 12:01:08;;;;;;;5.03;0.85;;;17.40;99.90;;;;;;4806357;29;20055;-84
2022/09/15 12:03:49;;;;;;;7.40;0.95;;;17.50;99.90;;;;;;4784072;29;20082;-84
2022/09/15 12:06:25;;;;;;;6.97;1.10;;;17.80;99.90;;;;;;4806571;29;20061;-84
2022/09/15 12:09:01;;;;;;;8.05;1.52;;;18.00;99.90;;;;;;4790395;29;20115;-84
2022/09/15 12:11:30;;;;;;;4.72;1.20;;;18.10;99.90;;;;;;4806070;29;20449;-84
2022/09/15 12:13:58;;;;;;;5.88;0.82;;;18.10;99.90;;;;;;4806400;29;20050;-84
2022/09/15 12:16:25;;;;;;;4.43;0.85;;;18.00;99.90;;;;;;4806152;29;20574;-84
2022/09/15 12:18:56;;;;;;;5.05;0.70;;;18.00;99.90;;;;;;4806503;29;20043;-84
2022/09/15 12:21:49;;;;;;;2.97;0.80;;;18.00;99.90;;;;;;4806254;29;20387;-84
2022/09/15 12:24:48;;;;;;;3.50;0.57;;;17.90;99.90;;;;;;4806369;29;20050;-84
2022/09/15 12:27:19;;;;;;;6.00;0.80;;;18.00;99.90;;;;;;4806330;29;20050;-83
2022/09/15 12:29:53;;;;;;;4.35;0.80;;;18.00;99.90;;;;;;4805997;29;20050;-84
2022/09/15 12:32:25;;;;;;;5.63;1.02;;;18.00;99.90;;;;;;4806341;29;20055;-84
2022/09/15 12:34:58;;;;;;;3.95;0.73;;;18.00;99.90;;;;;;4806286;29;20038;-84
2022/09/15 12:37:28;;;;;;;5.63;0.90;;;18.00;99.90;;;;;;4806290;29;20055;-84
2022/09/15 12:39:53;;;;;;;4.28;0.90;;;18.00;99.90;;;;;;4806054;29;20043;-84
2022/09/15 12:42:25;;;;;;;5.97;0.80;;;18.00;99.90;;;;;;4805975;29;20525;-84
2022/09/15 12:44:58;;;;;;;9.57;1.20;;;18.10;99.90;;;;;;4806491;29;20070;-84
2022/09/15 12:47:30;;;;;;;9.52;1.92;;;18.10;99.90;;;;;;4790404;29;20304;-83
2022/09/15 12:50:02;;;;;;;7.00;1.23;;;17.90;99.90;;;;;;4793288;29;20063;-83
2022/09/15 12:52:28;;;;;;;9.43;1.50;;;17.50;99.90;;;;;;4793403;29;20062;-81
2022/09/15 12:55:02;;;;;;;9.80;1.00;;;17.20;99.90;;;;;;4793101;29;20062;-82
2022/09/15 12:57:34;;;;;;;8.60;0.88;;;16.80;99.90;;;;;;4793001;29;20495;-82
2022/09/15 13:00:19;;;;;;;5.37;1.00;;;16.70;99.90;;;;;;4793384;29;20066;-81
2022/09/15 13:02:46;;;;;;;6.55;0.82;;;16.40;99.90;;;;;;4809277;29;20050;-81
2022/09/15 13:05:32;;;;;;;5.50;0.90;;;16.40;99.90;;;;;;4809440;29;20127;-81
2022/09/15 13:07:59;;;;;;;4.50;1.00;;;16.40;99.90;;;;;;4793079;29;20051;-81
2022/09/15 13:10:59;;;;;;;7.03;0.82;;;16.30;99.90;;;;;;4809167;29;20491;-81
2022/09/15 13:13:49;;;;;;;5.75;0.88;;;16.20;99.90;;;;;;4799193;29;20071;-81
2022/09/15 13:16:22;;;;;;;4.25;0.70;;;16.00;99.90;;;;;;4781264;29;20138;-81
2022/09/15 13:18:57;;;;;;;6.25;1.08;;;15.80;99.90;;;;;;4792709;29;20099;-80
2022/09/15 13:21:23;;;;;;;6.28;0.93;;;15.70;99.90;;;;;;4809002;29;20057;-80
2022/09/15 13:23:51;;;;;;;9.18;1.30;;;15.50;99.90;;;;;;4792602;29;20047;-80
2022/09/15 13:26:24;;;;;;;7.97;1.00;;;15.50;99.90;;;;;;4808820;29;20495;-80
2022/09/15 13:28:51;;;;;;;5.88;1.20;;;15.40;99.90;;;;;;4793325;29;20047;-79